LFKF/FSC METAR and TAF weather

Enter ICAO airport designator
Station Type Date Time Source
LFKF METAR 2018/12/19 03:30 UTC NOAA

LFKF 190330Z AUTO 03004KT 9999 FEW024 OVC220 01/00 Q1024 NOSIG


Station Type Date Time Source
LFKF Decoded METAR 2018/12/19 03:30 UTC NOAA

Figari, France (LFKF) 41-30N 009-06E 23M
Dec 18, 2018 - 10:30 PM EST / 2018.12.19 0330 UTC
Wind: from the NNE (030 degrees) at 5 MPH (4 KT):0
Visibility: greater than 7 mile(s):0
Sky conditions: overcast
Temperature: 33 F (1 C)
Windchill: 28 F (-2 C):1
Dew Point: 32 F (0 C)
Relative Humidity: 93%
Pressure (altimeter): 30.24 in. Hg (1024 hPa)
ob: LFKF 190330Z AUTO 03004KT 9999 FEW024 OVC220 01/00 Q1024 NOSIG
cycle: 3

Station Type Date Time Source
LFKF TAF 2018/12/19 03:21 UTC NOAA

TAF TAF LFKF 190200Z 1903/2003 04006KT 9999 SCT030
BECMG 1916/1918 RA FEW035TCU
TEMPO 1920/1922 BKN020 FEW030CB BKN070
BECMG 1922/1924 27010KT NSW NSC


Example: see airport list